createdAt,value
2023-03-27T00:00:45.516Z,2.00
2023-03-27T00:01:45.518Z,2.30
2023-03-27T00:02:45.512Z,2.70
2023-03-27T00:03:45.472Z,2.70
2023-03-27T00:04:45.398Z,2.00
2023-03-27T00:05:45.368Z,2.00
2023-03-27T00:06:45.342Z,2.40
2023-03-27T00:07:45.306Z,2.80
2023-03-27T00:08:45.279Z,2.00
2023-03-27T00:09:45.249Z,3.10
2023-03-27T00:10:45.218Z,2.00
2023-03-27T00:11:45.191Z,2.00
2023-03-27T00:12:45.171Z,2.10
2023-03-27T00:13:50.355Z,2.60
2023-03-27T00:14:45.103Z,2.60
2023-03-27T00:15:45.065Z,2.60
2023-03-27T00:16:45.075Z,1.90
2023-03-27T00:17:45.053Z,1.70
2023-03-27T00:18:45.077Z,1.90
2023-03-27T00:19:44.950Z,2.40
2023-03-27T00:20:44.917Z,2.00
2023-03-27T00:21:44.889Z,2.40
2023-03-27T00:22:44.859Z,2.40
2023-03-27T00:23:44.880Z,2.30
2023-03-27T00:24:44.796Z,2.20
2023-03-27T00:25:44.766Z,2.10
2023-03-27T00:26:44.736Z,2.30
2023-03-27T00:27:44.718Z,1.80
2023-03-27T00:28:44.701Z,2.10
2023-03-27T00:29:44.646Z,1.90
2023-03-27T00:30:44.646Z,1.80
2023-03-27T00:31:44.590Z,2.30
2023-03-27T00:32:44.616Z,2.30
2023-03-27T00:33:44.723Z,2.10
2023-03-27T00:34:44.493Z,2.20
2023-03-27T00:35:44.478Z,2.40
2023-03-27T00:36:44.432Z,2.20
2023-03-27T00:37:44.402Z,2.30
2023-03-27T00:38:44.374Z,2.00
2023-03-27T00:39:44.344Z,2.00
2023-03-27T00:40:44.350Z,1.80
2023-03-27T00:41:44.279Z,1.90
2023-03-27T00:42:44.250Z,2.20
2023-03-27T00:43:44.304Z,2.20
2023-03-27T00:44:44.191Z,1.90
2023-03-27T00:45:44.158Z,1.80
2023-03-27T00:46:44.182Z,2.10
2023-03-27T00:47:44.138Z,1.90
2023-03-27T00:48:44.078Z,2.00
2023-03-27T00:49:44.059Z,2.10
2023-03-27T00:50:44.012Z,2.20
2023-03-27T00:51:43.990Z,2.50
2023-03-27T00:52:43.948Z,2.00
2023-03-27T00:53:43.932Z,2.50
2023-03-27T00:54:43.888Z,2.00
2023-03-27T00:55:43.863Z,1.80
2023-03-27T00:56:43.850Z,1.70
2023-03-27T00:57:43.794Z,2.00
2023-03-27T00:58:43.770Z,2.10
2023-03-27T00:59:43.736Z,1.90
2023-03-27T01:00:43.710Z,2.10
2023-03-27T01:01:43.761Z,2.30
2023-03-27T01:02:43.798Z,1.80
2023-03-27T01:03:43.665Z,1.70
2023-03-27T01:04:43.591Z,2.10
2023-03-27T01:05:43.583Z,2.30
2023-03-27T01:06:43.526Z,2.20
2023-03-27T01:08:00.588Z,2.20
2023-03-27T01:08:43.465Z,1.90
2023-03-27T01:09:43.435Z,1.80
2023-03-27T01:10:43.407Z,2.60
2023-03-27T01:11:43.371Z,2.00
2023-03-27T01:12:43.352Z,2.00
2023-03-27T01:13:43.311Z,2.10
2023-03-27T01:14:43.286Z,2.60
2023-03-27T01:15:43.265Z,1.90
2023-03-27T01:16:43.220Z,2.30
2023-03-27T01:17:43.291Z,2.20
2023-03-27T01:18:43.158Z,2.20
2023-03-27T01:19:43.128Z,1.80
2023-03-27T01:20:43.104Z,2.10
2023-03-27T01:21:43.090Z,2.20
2023-03-27T01:22:43.040Z,2.00
2023-03-27T01:23:58.840Z,2.00
2023-03-27T01:24:42.981Z,2.20
2023-03-27T01:25:42.951Z,2.00
2023-03-27T01:26:42.917Z,2.90
2023-03-27T01:27:42.883Z,2.20
2023-03-27T01:28:42.858Z,1.80
2023-03-27T01:29:42.830Z,2.40
2023-03-27T01:30:42.798Z,2.20
2023-03-27T01:31:42.793Z,2.70
2023-03-27T01:32:42.770Z,2.20
2023-03-27T01:33:42.707Z,2.40
2023-03-27T01:34:42.680Z,1.80
2023-03-27T01:35:42.663Z,1.90
2023-03-27T01:36:42.621Z,2.00
2023-03-27T01:37:42.607Z,1.90
2023-03-27T01:38:42.571Z,2.20
2023-03-27T01:39:42.524Z,1.90
2023-03-27T01:40:42.496Z,2.30
2023-03-27T01:41:42.476Z,2.10
2023-03-27T01:42:42.435Z,1.90
2023-03-27T01:43:42.417Z,1.90
2023-03-27T01:44:44.462Z,1.90
2023-03-27T01:45:42.348Z,2.00
2023-03-27T01:46:42.366Z,2.10
2023-03-27T01:47:42.312Z,2.40
2023-03-27T01:48:42.260Z,2.30
2023-03-27T01:49:42.225Z,2.00
2023-03-27T01:50:42.197Z,1.90
2023-03-27T01:51:42.162Z,2.60
2023-03-27T01:52:42.135Z,2.70
2023-03-27T01:53:42.120Z,2.10
2023-03-27T01:54:42.079Z,2.20
2023-03-27T01:55:42.045Z,2.10
2023-03-27T01:56:42.041Z,2.50
2023-03-27T01:57:49.722Z,2.20
2023-03-27T01:58:41.960Z,2.20
2023-03-27T01:59:41.922Z,2.60
2023-03-27T02:01:04.023Z,2.00
2023-03-27T02:01:41.889Z,2.10
2023-03-27T02:02:41.890Z,2.30
2023-03-27T02:03:41.854Z,2.30
2023-03-27T02:04:41.812Z,2.60
2023-03-27T02:05:41.741Z,2.20
2023-03-27T02:06:41.721Z,2.40
2023-03-27T02:07:41.681Z,2.10
2023-03-27T02:08:41.654Z,2.10
2023-03-27T02:09:41.641Z,2.20
2023-03-27T02:10:41.615Z,2.60
2023-03-27T02:11:41.578Z,2.20
2023-03-27T02:12:41.534Z,2.30
2023-03-27T02:13:41.502Z,2.50
2023-03-27T02:14:41.474Z,2.50
2023-03-27T02:15:41.442Z,2.60
2023-03-27T02:16:41.487Z,2.90
2023-03-27T02:17:41.415Z,2.20
2023-03-27T02:18:41.353Z,2.00
2023-03-27T02:19:41.327Z,2.10
2023-03-27T02:20:41.294Z,2.10
2023-03-27T02:21:41.271Z,2.00
2023-03-27T02:22:41.236Z,3.00
2023-03-27T02:23:41.203Z,2.20
2023-03-27T02:24:41.182Z,2.10
2023-03-27T02:25:41.177Z,2.30
2023-03-27T02:26:41.112Z,2.60
2023-03-27T02:27:41.088Z,2.50
2023-03-27T02:28:41.052Z,2.30
2023-03-27T02:29:41.023Z,2.00
2023-03-27T02:30:40.992Z,2.20
2023-03-27T02:31:40.994Z,2.10
2023-03-27T02:32:41.046Z,2.40
2023-03-27T02:33:40.914Z,2.40
2023-03-27T02:34:40.871Z,2.20
2023-03-27T02:35:40.917Z,2.40
2023-03-27T02:36:40.811Z,2.50
2023-03-27T02:37:40.779Z,2.60
2023-03-27T02:38:40.751Z,2.10
2023-03-27T02:39:40.750Z,2.40
2023-03-27T02:40:40.688Z,2.30
2023-03-27T02:41:40.724Z,2.20
2023-03-27T02:42:40.634Z,2.40
2023-03-27T02:43:40.602Z,2.30
2023-03-27T02:44:46.551Z,2.70
2023-03-27T02:45:40.568Z,2.50
2023-03-27T02:46:40.525Z,2.20
2023-03-27T02:47:40.504Z,2.80
2023-03-27T02:48:40.456Z,2.50
2023-03-27T02:49:40.421Z,2.20
2023-03-27T02:50:40.392Z,2.30
2023-03-27T02:51:40.362Z,2.10
2023-03-27T02:52:40.329Z,2.10
2023-03-27T02:53:40.405Z,1.90
2023-03-27T02:54:40.278Z,2.20
2023-03-27T02:55:40.263Z,2.40
2023-03-27T02:56:40.231Z,2.00
2023-03-27T02:57:40.208Z,2.30
2023-03-27T02:58:40.155Z,2.20
2023-03-27T02:59:40.125Z,2.10
2023-03-27T03:00:40.092Z,1.90
2023-03-27T03:01:40.089Z,2.90
2023-03-27T03:02:40.110Z,2.00
2023-03-27T03:03:39.999Z,1.80
2023-03-27T03:04:39.969Z,2.30
2023-03-27T03:05:39.934Z,2.10
2023-03-27T03:06:39.907Z,2.40
2023-03-27T03:07:39.878Z,2.30
2023-03-27T03:08:39.848Z,2.30
2023-03-27T03:09:40.530Z,2.20
2023-03-27T03:10:39.785Z,1.80
2023-03-27T03:11:39.759Z,2.50
2023-03-27T03:12:39.733Z,2.60
2023-03-27T03:13:39.711Z,2.20
2023-03-27T03:14:39.667Z,1.90
2023-03-27T03:15:39.633Z,2.50
2023-03-27T03:16:39.715Z,2.60
2023-03-27T03:17:39.635Z,2.10
2023-03-27T03:18:39.543Z,2.50
2023-03-27T03:19:39.512Z,1.90
2023-03-27T03:20:39.487Z,2.50
2023-03-27T03:21:39.451Z,2.10
2023-03-27T03:22:39.421Z,1.90
2023-03-27T03:23:39.429Z,2.50
2023-03-27T03:24:39.359Z,2.20
2023-03-27T03:25:39.334Z,2.30
2023-03-27T03:26:39.300Z,2.40
2023-03-27T03:27:39.267Z,2.30
2023-03-27T03:28:39.241Z,2.40
2023-03-27T03:29:39.224Z,2.30
2023-03-27T03:30:39.229Z,2.40
2023-03-27T03:31:39.142Z,2.20
2023-03-27T03:32:39.131Z,2.60
2023-03-27T03:33:39.083Z,2.30
2023-03-27T03:34:39.057Z,2.20
2023-03-27T03:35:39.096Z,2.50
2023-03-27T03:36:38.996Z,2.20
2023-03-27T03:37:39.074Z,2.70
2023-03-27T03:38:38.931Z,2.20
2023-03-27T03:39:38.903Z,2.30
2023-03-27T03:40:38.880Z,2.40
2023-03-27T03:41:38.838Z,2.30
2023-03-27T03:42:38.809Z,1.90
2023-03-27T03:43:38.821Z,2.10
2023-03-27T03:44:38.767Z,2.50
2023-03-27T03:45:38.775Z,2.50
2023-03-27T03:46:38.724Z,2.30
2023-03-27T03:47:38.657Z,1.90
2023-03-27T03:48:38.628Z,2.50
2023-03-27T03:49:38.597Z,2.30
2023-03-27T03:50:38.562Z,2.30
2023-03-27T03:51:38.529Z,3.00
2023-03-27T03:52:38.502Z,2.40
2023-03-27T03:53:38.471Z,2.30
2023-03-27T03:54:38.439Z,2.20
2023-03-27T03:55:38.408Z,2.60
2023-03-27T03:56:38.384Z,2.70
2023-03-27T03:57:38.350Z,2.50
2023-03-27T03:58:38.314Z,2.50
2023-03-27T03:59:38.288Z,2.40
2023-03-27T04:00:38.255Z,2.00
2023-03-27T04:01:38.261Z,2.00
2023-03-27T04:02:38.306Z,2.10
2023-03-27T04:03:38.235Z,2.00
2023-03-27T04:04:38.128Z,2.20
2023-03-27T04:05:38.100Z,2.10
2023-03-27T04:06:38.065Z,2.20
2023-03-27T04:07:38.038Z,2.00
2023-03-27T04:08:38.051Z,2.20
2023-03-27T04:09:37.981Z,2.60
2023-03-27T04:10:37.948Z,2.20
2023-03-27T04:11:37.914Z,2.20
2023-03-27T04:12:37.884Z,2.70
2023-03-27T04:13:37.863Z,2.00
2023-03-27T04:14:37.821Z,2.60
2023-03-27T04:15:37.874Z,2.10
2023-03-27T04:16:37.760Z,2.20
2023-03-27T04:17:37.869Z,2.20
2023-03-27T04:18:37.761Z,2.90
2023-03-27T04:19:37.706Z,2.10
2023-03-27T04:20:37.653Z,2.30
2023-03-27T04:21:37.607Z,2.20
2023-03-27T04:22:37.573Z,2.10
2023-03-27T04:23:37.546Z,2.60
2023-03-27T04:24:37.517Z,2.80
2023-03-27T04:25:37.552Z,2.40
2023-03-27T04:26:37.450Z,2.30
2023-03-27T04:27:37.430Z,2.10
2023-03-27T04:28:37.394Z,2.30
2023-03-27T04:29:37.364Z,2.20
2023-03-27T04:30:37.334Z,2.30
2023-03-27T04:31:37.322Z,2.30
2023-03-27T04:32:37.291Z,2.50
2023-03-27T04:33:37.272Z,2.30
2023-03-27T04:34:37.213Z,2.10
2023-03-27T04:35:37.283Z,2.40
2023-03-27T04:36:37.193Z,2.10
2023-03-27T04:37:37.128Z,2.30
2023-03-27T04:38:37.283Z,2.60
2023-03-27T04:39:37.063Z,2.40
2023-03-27T04:40:37.032Z,2.40
2023-03-27T04:41:37.004Z,2.50
2023-03-27T04:42:36.972Z,2.00
2023-03-27T04:43:37.041Z,2.70
2023-03-27T04:44:37.062Z,1.90
2023-03-27T04:45:36.880Z,2.20
2023-03-27T04:46:36.903Z,2.40
2023-03-27T04:47:36.862Z,2.00
2023-03-27T04:48:36.786Z,2.40
2023-03-27T04:49:36.777Z,2.30
2023-03-27T04:50:36.727Z,2.30
2023-03-27T04:51:36.697Z,2.40
2023-03-27T04:52:36.668Z,3.00
2023-03-27T04:53:36.641Z,2.50
2023-03-27T04:54:36.613Z,2.80
2023-03-27T04:55:36.577Z,2.70
2023-03-27T04:56:36.565Z,2.70
2023-03-27T04:57:36.517Z,3.40
2023-03-27T04:58:37.462Z,2.60
2023-03-27T04:59:36.452Z,2.40
2023-03-27T05:00:36.433Z,3.20
2023-03-27T05:01:36.441Z,2.60
2023-03-27T05:02:36.381Z,2.80
2023-03-27T05:03:36.375Z,2.30
2023-03-27T05:04:36.303Z,2.60
2023-03-27T05:05:36.287Z,2.60
2023-03-27T05:06:36.748Z,2.90
2023-03-27T05:07:36.209Z,3.00
2023-03-27T05:08:36.189Z,2.90
2023-03-27T05:09:36.145Z,3.10
2023-03-27T05:10:36.116Z,2.70
2023-03-27T05:11:36.087Z,2.50
2023-03-27T05:12:36.053Z,2.60
2023-03-27T05:13:36.024Z,2.70
2023-03-27T05:14:35.986Z,3.10
2023-03-27T05:15:35.963Z,2.20
2023-03-27T05:16:36.215Z,2.40
2023-03-27T05:17:35.907Z,2.80
2023-03-27T05:18:35.867Z,2.50
2023-03-27T05:19:35.834Z,2.30
2023-03-27T05:20:35.805Z,2.30
2023-03-27T05:21:35.794Z,2.10
2023-03-27T05:22:35.741Z,2.80
2023-03-27T05:23:35.716Z,2.90
2023-03-27T05:24:35.683Z,2.50
2023-03-27T05:25:35.653Z,2.40
2023-03-27T05:26:36.932Z,2.40
2023-03-27T05:27:35.592Z,2.50
2023-03-27T05:28:35.561Z,2.40
2023-03-27T05:29:46.954Z,2.20
2023-03-27T05:30:35.561Z,2.50
2023-03-27T05:31:35.473Z,2.70
2023-03-27T05:32:35.509Z,2.20
2023-03-27T05:33:35.410Z,2.20
2023-03-27T05:34:35.372Z,2.50
2023-03-27T05:35:35.366Z,2.30
2023-03-27T05:36:35.313Z,2.30
2023-03-27T05:37:35.330Z,2.00
2023-03-27T05:38:35.253Z,2.20
2023-03-27T05:39:35.221Z,2.30
2023-03-27T05:40:35.190Z,2.30
2023-03-27T05:41:35.159Z,2.10
2023-03-27T05:42:35.127Z,2.10
2023-03-27T05:43:35.121Z,2.50
2023-03-27T05:44:35.101Z,2.70
2023-03-27T05:45:35.038Z,2.70
2023-03-27T05:46:35.069Z,2.40
2023-03-27T05:47:34.986Z,1.90
2023-03-27T05:48:34.941Z,2.60
2023-03-27T05:49:34.922Z,2.20
2023-03-27T05:50:34.886Z,2.40
2023-03-27T05:51:34.853Z,2.10
2023-03-27T05:52:34.820Z,2.20
2023-03-27T05:53:34.831Z,2.70
2023-03-27T05:54:34.758Z,2.70
2023-03-27T05:55:34.745Z,2.40
2023-03-27T05:56:34.838Z,2.30
2023-03-27T05:57:34.741Z,2.70
2023-03-27T05:58:34.640Z,2.60
2023-03-27T05:59:34.797Z,2.60
2023-03-27T06:00:34.575Z,2.40
2023-03-27T06:01:34.546Z,2.50
2023-03-27T06:02:34.576Z,2.30
2023-03-27T06:03:34.587Z,2.40
2023-03-27T06:04:34.518Z,2.20
2023-03-27T06:05:34.426Z,2.40
2023-03-27T06:06:34.421Z,2.00
2023-03-27T06:07:34.366Z,1.90
2023-03-27T06:08:34.349Z,2.20
2023-03-27T06:09:34.322Z,2.30
2023-03-27T06:10:34.274Z,1.90
2023-03-27T06:11:34.238Z,2.50
2023-03-27T06:12:34.210Z,2.40
2023-03-27T06:13:34.191Z,2.40
2023-03-27T06:14:34.148Z,2.40
2023-03-27T06:15:34.173Z,2.30
2023-03-27T06:16:34.206Z,2.20
2023-03-27T06:17:34.108Z,2.20
2023-03-27T06:18:34.030Z,2.20
2023-03-27T06:19:33.996Z,2.30
2023-03-27T06:20:33.964Z,2.20
2023-03-27T06:21:33.938Z,1.90
2023-03-27T06:22:33.909Z,2.20
2023-03-27T06:23:33.909Z,2.10
2023-03-27T06:24:33.845Z,2.00
2023-03-27T06:25:33.844Z,2.30
2023-03-27T06:26:33.785Z,2.50
2023-03-27T06:27:33.750Z,1.80
2023-03-27T06:28:33.724Z,2.10
2023-03-27T06:29:33.691Z,2.40
2023-03-27T06:30:33.659Z,2.00
2023-03-27T06:31:33.646Z,2.00
2023-03-27T06:32:33.607Z,2.00
2023-03-27T06:33:33.568Z,2.10
2023-03-27T06:34:33.544Z,2.40
2023-03-27T06:35:33.546Z,2.00
2023-03-27T06:36:33.474Z,2.10
2023-03-27T06:37:33.447Z,2.20
2023-03-27T06:38:33.416Z,2.00
2023-03-27T06:39:33.388Z,2.20
2023-03-27T06:40:33.357Z,2.10
2023-03-27T06:41:33.339Z,2.40
2023-03-27T06:42:33.296Z,2.20
2023-03-27T06:43:33.268Z,2.40
2023-03-27T06:44:33.229Z,2.50
2023-03-27T06:45:33.212Z,2.60
2023-03-27T06:46:44.564Z,2.00
2023-03-27T06:47:36.338Z,2.20
2023-03-27T06:48:33.155Z,2.20
2023-03-27T06:49:33.082Z,1.70
2023-03-27T06:50:33.176Z,2.10
2023-03-27T06:51:33.018Z,1.90
2023-03-27T06:52:32.988Z,1.80
2023-03-27T06:54:32.927Z,2.00
2023-03-27T06:55:32.900Z,2.10
2023-03-27T06:56:32.911Z,2.60
2023-03-27T06:57:32.871Z,2.70
2023-03-27T06:58:32.806Z,2.40
2023-03-27T06:59:32.775Z,2.40
2023-03-27T07:00:32.750Z,1.70
2023-03-27T07:01:32.758Z,2.30
2023-03-27T07:02:32.707Z,2.10
2023-03-27T07:03:32.664Z,1.90
2023-03-27T07:04:32.618Z,2.20
2023-03-27T07:05:32.627Z,2.50
2023-03-27T07:06:32.556Z,2.00
2023-03-27T07:07:32.526Z,1.80
2023-03-27T07:08:32.501Z,1.90
2023-03-27T07:09:32.463Z,2.10
2023-03-27T07:10:32.434Z,2.10
2023-03-27T07:11:32.420Z,2.30
2023-03-27T07:12:32.376Z,2.00
2023-03-27T07:13:32.482Z,1.80
2023-03-27T07:14:32.313Z,2.60
2023-03-27T07:15:32.281Z,1.70
2023-03-27T07:16:32.331Z,2.20
2023-03-27T07:17:45.517Z,2.20
2023-03-27T07:18:32.295Z,2.10
2023-03-27T07:19:32.164Z,2.00
2023-03-27T07:20:32.129Z,2.20
2023-03-27T07:21:32.139Z,2.10
2023-03-27T07:22:32.081Z,2.20
2023-03-27T07:23:32.040Z,1.70
2023-03-27T07:24:32.018Z,2.20
2023-03-27T07:25:31.979Z,1.90
2023-03-27T07:26:31.948Z,2.00
2023-03-27T07:27:31.920Z,1.90
2023-03-27T07:28:31.883Z,1.80
2023-03-27T07:29:31.878Z,2.10
2023-03-27T07:30:31.823Z,1.90
2023-03-27T07:31:54.881Z,2.10
2023-03-27T07:32:37.294Z,1.90
2023-03-27T07:33:31.913Z,2.20
2023-03-27T07:34:31.703Z,2.00
2023-03-27T07:35:31.689Z,1.90
2023-03-27T07:36:31.653Z,2.00
2023-03-27T07:37:31.614Z,1.90
2023-03-27T07:38:31.591Z,1.90
2023-03-27T07:39:31.610Z,1.80
2023-03-27T07:40:39.330Z,1.80
2023-03-27T07:41:31.545Z,1.70
2023-03-27T07:42:31.464Z,1.70
2023-03-27T07:43:31.432Z,1.90
2023-03-27T07:44:31.402Z,2.00
2023-03-27T07:45:31.417Z,2.00
2023-03-27T07:46:31.340Z,2.20
2023-03-27T07:47:31.345Z,1.80
2023-03-27T07:48:31.292Z,1.80
2023-03-27T07:49:39.211Z,1.70
2023-03-27T07:50:31.225Z,1.80
2023-03-27T07:51:31.197Z,2.20
2023-03-27T07:52:31.163Z,1.80
2023-03-27T07:53:33.237Z,2.30
2023-03-27T07:54:31.101Z,1.90
2023-03-27T07:55:31.081Z,2.00
2023-03-27T07:56:31.043Z,1.80
2023-03-27T07:57:33.170Z,1.90
2023-03-27T07:58:31.034Z,2.00
2023-03-27T07:59:31.053Z,2.20
2023-03-27T08:00:30.935Z,1.70
2023-03-27T08:01:30.922Z,1.80
2023-03-27T08:02:30.896Z,1.70
2023-03-27T08:03:31.024Z,2.00
2023-03-27T08:04:30.882Z,1.70
2023-03-27T08:05:30.776Z,1.60
2023-03-27T08:06:30.753Z,1.70
2023-03-27T08:07:30.715Z,2.10
2023-03-27T08:08:30.709Z,1.80
2023-03-27T08:09:30.657Z,1.70
2023-03-27T08:10:30.655Z,1.80
2023-03-27T08:11:31.229Z,2.00
2023-03-27T08:12:30.570Z,1.60
2023-03-27T08:13:30.575Z,1.90
2023-03-27T08:14:30.553Z,2.20
2023-03-27T08:15:30.480Z,2.20
2023-03-27T08:16:30.547Z,2.10
2023-03-27T08:17:30.552Z,1.90
2023-03-27T08:18:30.506Z,1.90
2023-03-27T08:19:30.393Z,1.70
2023-03-27T08:20:30.368Z,2.20
2023-03-27T08:21:30.400Z,1.80
2023-03-27T08:22:30.301Z,1.80
2023-03-27T08:23:30.311Z,2.70
2023-03-27T08:24:30.227Z,2.30
2023-03-27T08:25:30.228Z,1.80
2023-03-27T08:26:30.244Z,1.80
2023-03-27T08:27:30.129Z,2.00
2023-03-27T08:28:30.079Z,2.00
2023-03-27T08:29:30.101Z,1.70
2023-03-27T08:30:30.134Z,1.70
2023-03-27T08:31:30.074Z,1.70
2023-03-27T08:32:30.049Z,1.60
2023-03-27T08:33:29.947Z,1.80
2023-03-27T08:34:29.929Z,2.10
2023-03-27T08:35:30.082Z,1.70
2023-03-27T08:36:29.837Z,1.80
2023-03-27T08:37:29.821Z,1.80
2023-03-27T08:38:29.813Z,1.50
2023-03-27T08:39:29.861Z,1.90
2023-03-27T08:40:29.741Z,1.60
2023-03-27T08:41:29.714Z,1.80
2023-03-27T08:42:29.774Z,1.80
2023-03-27T08:43:29.737Z,1.70
2023-03-27T08:44:29.942Z,1.80
2023-03-27T08:45:29.613Z,1.50
2023-03-27T08:46:29.600Z,1.80
2023-03-27T08:47:29.595Z,1.60
2023-03-27T08:48:29.493Z,1.60
2023-03-27T08:49:29.506Z,2.10
2023-03-27T08:50:29.503Z,1.90
2023-03-27T08:51:29.423Z,2.00
2023-03-27T08:52:29.415Z,1.80
2023-03-27T08:53:29.653Z,1.80
2023-03-27T08:54:29.300Z,1.70
2023-03-27T08:55:29.273Z,1.70
2023-03-27T08:56:29.243Z,1.90
2023-03-27T08:57:29.215Z,2.10
2023-03-27T08:58:29.185Z,1.80
2023-03-27T08:59:29.153Z,1.90
2023-03-27T09:00:29.125Z,1.70
2023-03-27T09:01:29.106Z,1.40
2023-03-27T09:02:29.201Z,1.50
2023-03-27T09:03:29.156Z,1.70
2023-03-27T09:04:29.008Z,1.70
2023-03-27T09:05:28.994Z,1.60
2023-03-27T09:06:28.947Z,1.60
2023-03-27T09:07:28.915Z,2.00
2023-03-27T09:08:28.891Z,1.50
2023-03-27T09:09:28.863Z,1.80
2023-03-27T09:10:28.851Z,1.60
2023-03-27T09:11:28.810Z,2.20
2023-03-27T09:12:28.769Z,1.80
2023-03-27T09:13:28.763Z,2.00
2023-03-27T09:14:28.713Z,1.80
2023-03-27T09:15:28.679Z,1.80
2023-03-27T09:16:28.727Z,1.40
2023-03-27T09:17:28.654Z,1.40
2023-03-27T09:18:28.600Z,1.70
2023-03-27T09:19:28.561Z,1.60
2023-03-27T09:20:28.540Z,1.80
2023-03-27T09:21:28.523Z,1.80
2023-03-27T09:22:28.481Z,1.80
2023-03-27T09:23:28.447Z,1.50
2023-03-27T09:24:28.413Z,1.60
2023-03-27T09:25:28.386Z,1.50
2023-03-27T09:26:28.366Z,1.60
2023-03-27T09:27:28.327Z,1.60
2023-03-27T09:28:28.294Z,1.40
2023-03-27T09:29:28.266Z,1.90
2023-03-27T09:30:28.235Z,1.30
2023-03-27T09:31:28.238Z,1.70
2023-03-27T09:32:28.228Z,1.90
2023-03-27T09:33:28.150Z,1.80
2023-03-27T09:34:28.119Z,1.90
2023-03-27T09:35:28.113Z,1.70
2023-03-27T09:36:28.066Z,1.90
2023-03-27T09:37:28.165Z,2.00
2023-03-27T09:38:28.011Z,1.90
2023-03-27T09:39:27.977Z,1.60
2023-03-27T09:40:27.954Z,1.50
2023-03-27T09:41:27.919Z,1.50
2023-03-27T09:42:27.886Z,1.40
2023-03-27T09:43:27.865Z,1.50
2023-03-27T09:44:27.838Z,1.60
2023-03-27T09:45:27.800Z,1.50
2023-03-27T09:46:27.784Z,1.40
2023-03-27T09:47:27.752Z,1.40
2023-03-27T09:48:27.720Z,1.50
2023-03-27T09:49:27.715Z,1.50
2023-03-27T09:50:27.967Z,1.70
2023-03-27T09:51:27.625Z,1.20
2023-03-27T09:52:27.593Z,1.40
2023-03-27T09:53:27.584Z,2.10
2023-03-27T09:54:27.699Z,1.40
2023-03-27T09:55:27.521Z,1.40
2023-03-27T09:56:27.482Z,1.70
2023-03-27T09:57:27.448Z,1.60
2023-03-27T09:58:27.420Z,1.30
2023-03-27T09:59:27.397Z,1.40
2023-03-27T10:00:27.372Z,1.20
2023-03-27T10:01:27.396Z,1.70
2023-03-27T10:02:27.411Z,1.50
2023-03-27T10:03:27.347Z,1.20
2023-03-27T10:04:27.249Z,1.30
2023-03-27T10:05:27.217Z,1.50
2023-03-27T10:06:27.198Z,1.60
2023-03-27T10:07:27.163Z,1.70
2023-03-27T10:08:27.557Z,1.70
2023-03-27T10:09:27.118Z,1.20
2023-03-27T10:10:27.080Z,1.40
2023-03-27T10:11:27.053Z,1.30
2023-03-27T10:12:27.018Z,1.40
2023-03-27T10:13:26.987Z,1.50
2023-03-27T10:14:26.968Z,1.60
2023-03-27T10:15:26.983Z,1.60
2023-03-27T10:16:26.952Z,1.60
2023-03-27T10:17:26.895Z,1.30
2023-03-27T10:18:26.846Z,1.40
2023-03-27T10:19:26.818Z,1.60
2023-03-27T10:20:26.793Z,1.60
2023-03-27T10:21:26.764Z,1.50
2023-03-27T10:22:26.740Z,1.50
2023-03-27T10:23:26.749Z,1.30
2023-03-27T10:24:26.707Z,1.50
2023-03-27T10:25:26.674Z,1.50
2023-03-27T10:26:26.631Z,1.50
2023-03-27T10:27:26.591Z,1.40
2023-03-27T10:28:26.567Z,1.30
2023-03-27T10:29:26.551Z,1.60
2023-03-27T10:30:26.511Z,1.50
2023-03-27T10:31:26.504Z,1.30
2023-03-27T10:32:26.468Z,1.70
2023-03-27T10:33:26.422Z,1.50
2023-03-27T10:34:26.395Z,1.20
2023-03-27T10:35:26.420Z,1.40
2023-03-27T10:36:26.338Z,1.60
2023-03-27T10:37:26.314Z,1.60
2023-03-27T10:38:26.286Z,1.40
2023-03-27T10:39:26.251Z,1.40
2023-03-27T10:40:26.233Z,1.60
2023-03-27T10:41:28.442Z,1.20
2023-03-27T10:42:26.174Z,1.20
2023-03-27T10:43:26.140Z,1.20
2023-03-27T10:44:26.129Z,1.20
2023-03-27T10:45:26.084Z,1.50
2023-03-27T10:46:26.123Z,1.40
2023-03-27T10:47:26.052Z,1.30
2023-03-27T10:48:26.001Z,1.20
2023-03-27T10:49:25.975Z,1.30
2023-03-27T10:50:25.942Z,1.40
2023-03-27T10:51:33.100Z,1.40
2023-03-27T10:52:25.888Z,1.30
2023-03-27T10:53:25.895Z,1.30
2023-03-27T10:54:25.904Z,1.40
2023-03-27T10:55:25.801Z,1.20
2023-03-27T10:56:25.779Z,1.40
2023-03-27T10:57:25.771Z,1.30
2023-03-27T10:58:25.716Z,1.40
2023-03-27T10:59:38.351Z,1.40
2023-03-27T11:00:25.665Z,1.30
2023-03-27T11:01:25.665Z,1.30
2023-03-27T11:02:25.674Z,1.30
2023-03-27T11:03:25.621Z,1.10
2023-03-27T11:04:25.548Z,1.50
2023-03-27T11:05:25.529Z,1.20
2023-03-27T11:06:25.558Z,1.10
2023-03-27T11:07:25.478Z,1.40
2023-03-27T11:08:25.450Z,1.40
2023-03-27T11:09:25.405Z,1.30
2023-03-27T11:10:25.394Z,1.30
2023-03-27T11:11:25.348Z,1.30
2023-03-27T11:12:25.321Z,1.60
2023-03-27T11:13:25.329Z,1.50
2023-03-27T11:14:25.301Z,1.90
2023-03-27T11:15:25.302Z,1.60
2023-03-27T11:16:25.246Z,1.40
2023-03-27T11:17:25.233Z,1.30
2023-03-27T11:18:25.155Z,1.30
2023-03-27T11:19:25.133Z,1.40
2023-03-27T11:20:26.429Z,1.60
2023-03-27T11:21:25.077Z,1.20
2023-03-27T11:22:25.157Z,1.20
2023-03-27T11:23:25.024Z,1.20
2023-03-27T11:24:25.000Z,1.00
2023-03-27T11:25:25.040Z,0.90
2023-03-27T11:26:24.955Z,1.20
2023-03-27T11:27:24.972Z,1.00
2023-03-27T11:28:24.871Z,1.10
2023-03-27T11:29:24.867Z,1.30
2023-03-27T11:30:24.829Z,1.20
2023-03-27T11:31:24.812Z,1.00
2023-03-27T11:32:24.758Z,1.10
2023-03-27T11:33:24.722Z,1.20
2023-03-27T11:34:29.067Z,1.10
2023-03-27T11:35:24.678Z,1.20
2023-03-27T11:36:24.638Z,1.00
2023-03-27T11:37:24.604Z,1.40
2023-03-27T11:38:24.576Z,1.10
2023-03-27T11:39:24.550Z,1.20
2023-03-27T11:40:24.541Z,1.10
2023-03-27T11:41:24.494Z,1.20
2023-03-27T11:42:24.459Z,1.10
2023-03-27T11:43:24.448Z,1.20
2023-03-27T11:44:24.396Z,1.20
2023-03-27T11:45:24.389Z,1.30
2023-03-27T11:46:24.476Z,1.60
2023-03-27T11:47:24.308Z,1.40
2023-03-27T11:48:24.279Z,1.20
2023-03-27T11:49:24.249Z,1.40
2023-03-27T11:50:24.220Z,1.10
2023-03-27T11:51:24.205Z,1.50
2023-03-27T11:52:24.159Z,1.40
2023-03-27T11:53:24.138Z,1.40
2023-03-27T11:54:24.101Z,1.70
2023-03-27T11:55:24.075Z,1.30
2023-03-27T11:56:24.038Z,1.30
2023-03-27T11:57:24.011Z,1.30
2023-03-27T11:58:24.050Z,1.20
2023-03-27T11:59:23.948Z,1.30
2023-03-27T12:00:23.920Z,1.50
2023-03-27T12:01:23.912Z,1.30
2023-03-27T12:02:23.886Z,1.40
2023-03-27T12:03:23.904Z,1.40
2023-03-27T12:04:23.945Z,1.10
2023-03-27T12:05:23.766Z,1.90
2023-03-27T12:06:23.741Z,1.40
2023-03-27T12:07:35.462Z,1.40
2023-03-27T12:08:23.692Z,2.20
2023-03-27T12:09:23.649Z,1.70
2023-03-27T12:10:28.540Z,1.40
2023-03-27T12:11:23.589Z,1.90
2023-03-27T12:12:23.561Z,1.40
2023-03-27T12:13:28.724Z,1.80
2023-03-27T12:15:23.468Z,1.50
2023-03-27T12:16:23.475Z,1.30
2023-03-27T12:17:23.600Z,1.50
2023-03-27T12:18:27.437Z,1.50
2023-03-27T12:19:29.759Z,1.40
2023-03-27T12:20:23.324Z,1.40
2023-03-27T12:21:23.293Z,1.30
2023-03-27T12:22:24.262Z,1.40
2023-03-27T12:23:23.231Z,1.40
2023-03-27T12:24:23.220Z,1.70
2023-03-27T12:25:23.182Z,1.40
2023-03-27T12:26:23.141Z,1.20
2023-03-27T12:27:23.120Z,1.60
2023-03-27T12:28:23.665Z,1.40
2023-03-27T12:29:24.502Z,1.50
2023-03-27T12:30:23.026Z,1.60
2023-03-27T12:31:23.072Z,1.50
2023-03-27T12:32:22.984Z,1.50
2023-03-27T12:33:22.959Z,1.50
2023-03-27T12:34:22.903Z,1.40
2023-03-27T12:35:22.934Z,2.00
2023-03-27T12:36:22.847Z,1.30
2023-03-27T12:37:22.818Z,1.60
2023-03-27T12:38:22.792Z,1.70
2023-03-27T12:39:22.765Z,1.50
2023-03-27T12:40:22.736Z,1.70
2023-03-27T12:41:22.702Z,1.90
2023-03-27T12:42:22.671Z,1.60
2023-03-27T12:43:22.649Z,1.40
2023-03-27T12:44:22.677Z,1.70
2023-03-27T12:45:22.612Z,1.70
2023-03-27T12:46:22.596Z,2.00
2023-03-27T12:47:22.544Z,1.40
2023-03-27T12:48:22.507Z,1.40
2023-03-27T12:49:22.492Z,1.40
2023-03-27T12:50:22.552Z,1.60
2023-03-27T12:51:22.410Z,1.70
2023-03-27T12:52:22.383Z,1.60
2023-03-27T12:53:22.354Z,1.70
2023-03-27T12:54:22.320Z,1.50
2023-03-27T12:55:22.292Z,1.80
2023-03-27T12:56:22.344Z,1.70
2023-03-27T12:57:22.432Z,1.50
2023-03-27T12:58:22.246Z,1.60
2023-03-27T12:59:22.188Z,1.60
2023-03-27T13:00:22.163Z,1.60
2023-03-27T13:01:22.151Z,1.70
2023-03-27T13:02:22.150Z,1.70
2023-03-27T13:03:22.145Z,1.50
2023-03-27T13:04:22.028Z,1.40
2023-03-27T13:05:27.285Z,1.60
2023-03-27T13:06:21.969Z,1.50
2023-03-27T13:07:21.941Z,1.60
2023-03-27T13:08:21.947Z,1.30
2023-03-27T13:09:21.883Z,1.40
2023-03-27T13:10:21.851Z,1.40
2023-03-27T13:11:21.829Z,1.30
2023-03-27T13:12:21.796Z,2.00
2023-03-27T13:13:21.787Z,1.80
2023-03-27T13:14:21.739Z,1.80
2023-03-27T13:15:21.708Z,1.70
2023-03-27T13:16:21.734Z,1.30
2023-03-27T13:17:21.650Z,1.50
2023-03-27T13:18:21.627Z,1.90
2023-03-27T13:19:21.592Z,1.80
2023-03-27T13:20:21.571Z,2.10